createdAt,value
2023-05-16T00:01:30.402Z,100.00
2023-05-16T00:03:57.783Z,100.00
2023-05-16T00:06:24.483Z,100.00
2023-05-16T00:08:51.030Z,100.00
2023-05-16T00:11:17.849Z,100.00
2023-05-16T00:13:44.453Z,100.00
2023-05-16T00:16:11.723Z,100.00
2023-05-16T00:18:38.779Z,100.00
2023-05-16T00:21:05.805Z,100.00
2023-05-16T00:23:32.811Z,100.00
2023-05-16T00:25:59.708Z,100.00
2023-05-16T00:28:26.302Z,100.00
2023-05-16T00:30:52.885Z,100.00
2023-05-16T00:33:19.524Z,100.00
2023-05-16T00:35:46.140Z,100.00
2023-05-16T00:38:12.774Z,100.00
2023-05-16T00:40:39.443Z,100.00
2023-05-16T00:43:06.079Z,100.00
2023-05-16T00:45:32.648Z,100.00
2023-05-16T00:47:59.292Z,100.00
2023-05-16T00:50:26.382Z,100.00
2023-05-16T00:52:53.450Z,100.00
2023-05-16T00:55:20.350Z,100.00
2023-05-16T00:57:47.355Z,100.00
2023-05-16T01:00:15.928Z,100.00
2023-05-16T01:02:43.112Z,100.00
2023-05-16T01:05:09.724Z,100.00
2023-05-16T01:07:36.338Z,100.00
2023-05-16T01:10:05.937Z,100.00
2023-05-16T01:13:01.497Z,100.00
2023-05-16T01:15:38.158Z,100.00
2023-05-16T01:18:19.018Z,100.00
2023-05-16T01:21:03.960Z,100.00
2023-05-16T01:24:04.199Z,100.00
2023-05-16T01:26:32.402Z,100.00
2023-05-16T01:28:59.860Z,100.00
2023-05-16T01:31:26.639Z,100.00
2023-05-16T01:33:53.257Z,100.00
2023-05-16T01:36:51.079Z,100.00
2023-05-16T01:39:27.160Z,100.00
2023-05-16T01:42:09.117Z,100.00
2023-05-16T01:44:43.259Z,100.00
2023-05-16T01:47:13.067Z,100.00
2023-05-16T01:49:45.905Z,100.00
2023-05-16T01:52:26.730Z,100.00
2023-05-16T01:54:57.702Z,100.00
2023-05-16T01:57:26.991Z,100.00
2023-05-16T01:59:53.992Z,100.00
2023-05-16T02:02:20.960Z,100.00
2023-05-16T02:04:47.736Z,100.00
2023-05-16T02:07:15.140Z,100.00
2023-05-16T02:09:41.829Z,100.00
2023-05-16T02:12:08.879Z,100.00
2023-05-16T02:14:35.469Z,100.00
2023-05-16T02:17:02.245Z,100.00
2023-05-16T02:19:29.189Z,100.00
2023-05-16T02:21:55.813Z,100.00
2023-05-16T02:24:22.515Z,100.00
2023-05-16T02:26:49.135Z,100.00
2023-05-16T02:29:16.582Z,100.00
2023-05-16T02:31:43.233Z,100.00
2023-05-16T02:34:11.005Z,100.00
2023-05-16T02:36:37.666Z,100.00
2023-05-16T02:39:04.307Z,100.00
2023-05-16T02:41:31.816Z,100.00
2023-05-16T02:43:58.716Z,100.00
2023-05-16T02:46:34.688Z,100.00
2023-05-16T02:49:02.149Z,100.00
2023-05-16T02:51:29.185Z,100.00
2023-05-16T02:54:00.000Z,100.00
2023-05-16T02:56:27.004Z,100.00
2023-05-16T02:58:55.816Z,100.00
2023-05-16T03:01:22.687Z,100.00
2023-05-16T03:03:49.459Z,100.00
2023-05-16T03:06:16.352Z,100.00
2023-05-16T03:08:42.973Z,100.00
2023-05-16T03:11:09.562Z,100.00
2023-05-16T03:13:36.150Z,100.00
2023-05-16T03:16:03.191Z,100.00
2023-05-16T03:18:29.907Z,100.00
2023-05-16T03:20:57.519Z,100.00
2023-05-16T03:23:24.213Z,100.00
2023-05-16T03:25:50.960Z,100.00
2023-05-16T03:28:18.402Z,100.00
2023-05-16T03:30:45.458Z,100.00
2023-05-16T03:33:12.121Z,100.00
2023-05-16T03:35:39.252Z,100.00
2023-05-16T03:38:06.403Z,100.00
2023-05-16T03:40:33.121Z,100.00
2023-05-16T03:42:59.725Z,100.00
2023-05-16T03:45:27.032Z,100.00
2023-05-16T03:47:53.848Z,100.00
2023-05-16T03:50:20.454Z,100.00
2023-05-16T03:52:47.051Z,100.00
2023-05-16T03:55:15.283Z,100.00
2023-05-16T03:57:42.799Z,100.00
2023-05-16T04:00:11.253Z,100.00
2023-05-16T04:02:41.035Z,100.00
2023-05-16T04:05:09.683Z,100.00
2023-05-16T04:07:37.350Z,100.00
2023-05-16T04:10:05.009Z,100.00
2023-05-16T04:12:31.774Z,100.00
2023-05-16T04:14:58.523Z,100.00
2023-05-16T04:17:26.355Z,100.00
2023-05-16T04:19:53.052Z,100.00
2023-05-16T04:22:22.719Z,100.00
2023-05-16T04:24:50.000Z,100.00
2023-05-16T04:27:16.976Z,100.00
2023-05-16T04:29:44.584Z,100.00
2023-05-16T04:32:12.511Z,100.00
2023-05-16T04:34:40.291Z,100.00
2023-05-16T04:37:08.495Z,100.00
2023-05-16T04:39:36.338Z,100.00
2023-05-16T04:42:03.875Z,100.00
2023-05-16T04:44:30.630Z,100.00
2023-05-16T04:46:57.846Z,100.00
2023-05-16T04:49:24.686Z,100.00
2023-05-16T04:51:51.338Z,100.00
2023-05-16T04:54:17.974Z,100.00
2023-05-16T04:56:44.604Z,100.00
2023-05-16T04:59:11.206Z,100.00
2023-05-16T05:01:37.919Z,100.00
2023-05-16T05:04:04.552Z,100.00
2023-05-16T05:06:31.586Z,100.00
2023-05-16T05:08:58.386Z,100.00
2023-05-16T05:11:24.946Z,100.00
2023-05-16T05:13:52.986Z,100.00
2023-05-16T05:16:19.983Z,98.68
2023-05-16T05:18:46.739Z,98.05
2023-05-16T05:21:13.782Z,98.35
2023-05-16T05:23:40.552Z,97.31
2023-05-16T05:26:07.154Z,95.98
2023-05-16T05:28:33.779Z,94.75
2023-05-16T05:31:00.381Z,95.63
2023-05-16T05:33:29.604Z,96.21
2023-05-16T05:35:56.429Z,96.65
2023-05-16T05:38:23.240Z,96.86
2023-05-16T05:40:49.810Z,96.80
2023-05-16T05:43:16.645Z,96.20
2023-05-16T05:45:44.176Z,96.89
2023-05-16T05:48:12.038Z,95.46
2023-05-16T05:50:38.883Z,96.58
2023-05-16T05:53:05.491Z,96.47
2023-05-16T05:55:32.025Z,96.92
2023-05-16T05:57:58.580Z,96.65
2023-05-16T06:00:25.225Z,95.75
2023-05-16T06:02:52.048Z,96.39
2023-05-16T06:05:18.982Z,97.04
2023-05-16T06:07:45.667Z,97.19
2023-05-16T06:10:12.210Z,95.98
2023-05-16T06:12:38.939Z,95.98
2023-05-16T06:15:06.003Z,95.69
2023-05-16T06:17:32.526Z,95.76
2023-05-16T06:19:59.191Z,97.09
2023-05-16T06:22:25.741Z,96.88
2023-05-16T06:24:52.374Z,96.46
2023-05-16T06:27:18.893Z,94.97
2023-05-16T06:30:20.554Z,94.27
2023-05-16T06:32:50.818Z,93.69
2023-05-16T06:35:17.447Z,94.81
2023-05-16T06:37:44.060Z,94.30
2023-05-16T06:40:11.540Z,93.64
2023-05-16T06:42:38.856Z,94.38
2023-05-16T06:45:06.365Z,94.08
2023-05-16T06:47:33.206Z,94.26
2023-05-16T06:49:59.874Z,93.79
2023-05-16T06:52:26.967Z,94.75
2023-05-16T06:54:54.509Z,93.19
2023-05-16T06:57:21.202Z,92.81
2023-05-16T06:59:47.893Z,92.65
2023-05-16T07:02:14.481Z,92.79
2023-05-16T07:04:41.150Z,92.07
2023-05-16T07:07:10.664Z,93.19
2023-05-16T07:09:37.509Z,92.58
2023-05-16T07:12:04.659Z,90.69
2023-05-16T07:14:31.293Z,90.21
2023-05-16T07:16:58.071Z,92.49
2023-05-16T07:19:24.758Z,91.84
2023-05-16T07:21:51.447Z,93.66
2023-05-16T07:24:18.066Z,94.64
2023-05-16T07:26:44.734Z,94.39
2023-05-16T07:29:11.997Z,94.44
2023-05-16T07:31:38.764Z,95.78
2023-05-16T07:34:05.889Z,92.39
2023-05-16T07:36:33.222Z,93.16
2023-05-16T07:38:59.960Z,92.19
2023-05-16T07:41:27.239Z,92.41
2023-05-16T07:43:53.783Z,91.34
2023-05-16T07:46:20.475Z,90.06
2023-05-16T07:48:47.171Z,89.46
2023-05-16T07:51:13.814Z,87.42
2023-05-16T07:53:40.535Z,86.19
2023-05-16T07:56:08.640Z,85.55
2023-05-16T07:58:35.481Z,82.99
2023-05-16T08:01:02.526Z,79.18
2023-05-16T08:03:29.420Z,79.75
2023-05-16T08:05:56.216Z,78.79
2023-05-16T08:08:22.890Z,78.13
2023-05-16T08:10:49.706Z,79.08
2023-05-16T08:13:16.429Z,77.62
2023-05-16T08:15:43.388Z,77.85
2023-05-16T08:18:15.154Z,74.92
2023-05-16T08:20:42.545Z,77.76
2023-05-16T08:23:09.714Z,78.41
2023-05-16T08:25:36.407Z,77.63
2023-05-16T08:28:03.199Z,78.41
2023-05-16T08:30:29.951Z,78.73
2023-05-16T08:32:56.598Z,79.53
2023-05-16T08:35:23.722Z,77.39
2023-05-16T08:37:50.476Z,80.37
2023-05-16T08:40:17.218Z,77.18
2023-05-16T08:42:45.412Z,77.65
2023-05-16T08:45:12.836Z,76.63
2023-05-16T08:47:41.570Z,78.70
2023-05-16T08:50:10.474Z,80.06
2023-05-16T08:52:38.491Z,82.08
2023-05-16T08:55:10.728Z,79.78
2023-05-16T08:57:38.971Z,81.19
2023-05-16T09:00:12.201Z,79.16
2023-05-16T09:02:43.514Z,78.55
2023-05-16T09:05:12.840Z,77.30
2023-05-16T09:07:40.639Z,77.76
2023-05-16T09:10:08.458Z,77.55
2023-05-16T09:12:35.250Z,77.37
2023-05-16T09:15:07.249Z,77.09
2023-05-16T09:17:46.703Z,78.59
2023-05-16T09:20:16.505Z,75.39
2023-05-16T09:22:57.272Z,75.29
2023-05-16T09:28:01.882Z,74.81
2023-05-16T09:30:31.861Z,74.23
2023-05-16T09:32:59.355Z,74.88
2023-05-16T09:35:43.148Z,76.66
2023-05-16T09:38:17.331Z,72.12
2023-05-16T09:40:45.365Z,72.80
2023-05-16T09:43:16.631Z,72.79
2023-05-16T09:45:48.558Z,73.34
2023-05-16T09:48:15.990Z,75.04
2023-05-16T09:50:57.166Z,74.01
2023-05-16T09:53:31.561Z,75.00
2023-05-16T09:56:05.220Z,73.79
2023-05-16T09:58:33.174Z,73.24
2023-05-16T10:00:59.823Z,73.91
2023-05-16T10:03:27.385Z,75.21
2023-05-16T10:05:55.276Z,75.23
2023-05-16T10:08:24.008Z,76.37
2023-05-16T10:10:55.019Z,77.87
2023-05-16T10:13:29.450Z,74.80
2023-05-16T10:15:57.757Z,76.77
2023-05-16T10:18:34.497Z,75.55
2023-05-16T10:21:06.914Z,73.52
2023-05-16T10:23:36.179Z,76.95
2023-05-16T10:26:04.837Z,76.67
2023-05-16T10:28:32.341Z,76.51
2023-05-16T10:31:00.531Z,75.80
2023-05-16T10:33:27.261Z,76.15
2023-05-16T10:35:55.374Z,75.85
2023-05-16T10:38:24.587Z,73.91
2023-05-16T10:40:52.102Z,74.84
2023-05-16T10:43:27.130Z,74.27
2023-05-16T10:46:05.327Z,73.82
2023-05-16T10:48:34.692Z,73.22
2023-05-16T10:51:03.381Z,73.05
2023-05-16T10:53:36.361Z,71.27
2023-05-16T10:56:03.396Z,69.83
2023-05-16T10:58:39.465Z,71.42
2023-05-16T11:01:19.061Z,67.95
2023-05-16T11:03:58.286Z,66.41
2023-05-16T11:06:26.394Z,67.67
2023-05-16T11:09:10.584Z,65.41
2023-05-16T11:11:52.574Z,65.73
2023-05-16T11:14:29.480Z,63.88
2023-05-16T11:17:15.197Z,63.87
2023-05-16T11:19:46.162Z,62.02
2023-05-16T11:22:33.105Z,63.26
2023-05-16T11:25:05.908Z,61.30
2023-05-16T11:27:46.836Z,60.69
2023-05-16T11:30:16.074Z,59.82
2023-05-16T11:32:44.774Z,59.90
2023-05-16T11:35:14.822Z,60.11
2023-05-16T11:37:43.155Z,60.01
2023-05-16T11:40:12.312Z,64.43
2023-05-16T11:42:41.957Z,64.71
2023-05-16T11:45:09.601Z,63.22
2023-05-16T11:47:38.674Z,63.77
2023-05-16T11:50:09.037Z,64.07
2023-05-16T11:52:36.599Z,65.03
2023-05-16T11:55:06.446Z,65.54
2023-05-16T11:57:33.771Z,65.96
2023-05-16T12:00:16.337Z,67.17
2023-05-16T12:02:43.849Z,69.62
2023-05-16T12:05:11.267Z,70.35
2023-05-16T12:07:39.391Z,71.91
2023-05-16T12:10:07.951Z,71.17
2023-05-16T12:12:36.246Z,71.00
2023-05-16T12:15:04.666Z,72.02
2023-05-16T12:17:31.439Z,71.73
2023-05-16T12:19:58.379Z,71.07
2023-05-16T12:22:26.015Z,73.70
2023-05-16T12:24:52.914Z,74.43
2023-05-16T12:27:23.565Z,76.98
2023-05-16T12:29:50.576Z,75.17
2023-05-16T12:32:21.341Z,77.95
2023-05-16T12:34:52.395Z,75.86
2023-05-16T12:37:19.552Z,77.90
2023-05-16T12:39:47.676Z,77.01
2023-05-16T12:42:14.815Z,77.32
2023-05-16T12:44:46.170Z,77.18
2023-05-16T12:47:13.546Z,77.83
2023-05-16T12:49:47.118Z,77.77
2023-05-16T12:52:20.953Z,77.78
2023-05-16T12:54:48.468Z,75.32
2023-05-16T12:57:15.100Z,75.40
2023-05-16T12:59:41.702Z,74.03
2023-05-16T13:02:08.648Z,73.94
2023-05-16T13:04:37.268Z,73.34
2023-05-16T13:07:04.832Z,73.63
2023-05-16T13:09:33.090Z,73.03
2023-05-16T13:12:00.381Z,72.12
2023-05-16T13:14:27.281Z,74.61
2023-05-16T13:16:53.877Z,74.97
2023-05-16T13:19:22.418Z,74.56
2023-05-16T13:21:49.130Z,76.13
2023-05-16T13:24:15.918Z,76.28
2023-05-16T13:26:42.450Z,75.50
2023-05-16T13:29:11.297Z,78.07
2023-05-16T13:31:38.030Z,79.72
2023-05-16T13:34:07.060Z,79.49
2023-05-16T13:36:49.215Z,78.16
2023-05-16T13:39:19.514Z,79.55
2023-05-16T13:41:48.661Z,78.08
2023-05-16T13:44:16.230Z,76.16
2023-05-16T13:46:43.316Z,76.98
2023-05-16T13:49:09.963Z,77.00
2023-05-16T13:51:37.898Z,76.31
2023-05-16T13:54:04.553Z,74.66
2023-05-16T13:56:31.305Z,76.28
2023-05-16T13:59:03.674Z,75.97
2023-05-16T14:01:33.323Z,76.35
2023-05-16T14:04:00.122Z,77.21
2023-05-16T14:06:26.776Z,77.93
2023-05-16T14:08:53.354Z,76.90
2023-05-16T14:11:23.161Z,78.11
2023-05-16T14:13:49.937Z,76.90
2023-05-16T14:16:16.749Z,77.83
2023-05-16T14:18:43.379Z,76.64
2023-05-16T14:21:10.413Z,77.49
2023-05-16T14:23:37.106Z,78.11
2023-05-16T14:26:06.958Z,78.72
2023-05-16T14:28:34.298Z,79.63
2023-05-16T14:31:01.827Z,81.11
2023-05-16T14:33:28.471Z,81.58
2023-05-16T14:35:55.266Z,82.52
2023-05-16T14:38:22.101Z,82.21
2023-05-16T14:40:48.765Z,83.18
2023-05-16T14:43:16.644Z,84.30
2023-05-16T14:45:44.409Z,83.95
2023-05-16T14:48:11.317Z,81.88
2023-05-16T14:50:37.939Z,83.55
2023-05-16T14:53:04.563Z,83.58
2023-05-16T14:55:31.378Z,83.05
2023-05-16T14:57:59.960Z,81.58
2023-05-16T15:00:27.524Z,82.81
2023-05-16T15:02:54.373Z,81.51
2023-05-16T15:05:21.208Z,80.20
2023-05-16T15:07:48.647Z,82.00
2023-05-16T15:10:15.505Z,81.50
2023-05-16T15:12:43.433Z,81.64
2023-05-16T15:15:16.211Z,81.62
2023-05-16T15:17:43.354Z,82.67
2023-05-16T15:20:11.591Z,83.06
2023-05-16T15:22:41.666Z,83.30
2023-05-16T15:25:09.487Z,83.40
2023-05-16T15:27:36.201Z,82.63
2023-05-16T15:30:03.676Z,82.83
2023-05-16T15:32:30.495Z,81.66
2023-05-16T15:34:57.904Z,80.58
2023-05-16T15:37:24.551Z,78.21
2023-05-16T15:39:51.180Z,79.23
2023-05-16T15:42:19.927Z,78.50
2023-05-16T15:44:46.612Z,77.24
2023-05-16T15:47:13.369Z,76.25
2023-05-16T15:49:40.115Z,76.29
2023-05-16T15:52:06.767Z,77.44
2023-05-16T15:54:33.628Z,78.04
2023-05-16T15:57:00.259Z,78.38
2023-05-16T15:59:26.798Z,78.95
2023-05-16T16:01:53.489Z,79.60
2023-05-16T16:04:22.551Z,80.41
2023-05-16T16:06:50.412Z,80.50
2023-05-16T16:09:17.605Z,81.55
2023-05-16T16:11:44.332Z,82.25
2023-05-16T16:14:11.336Z,82.29
2023-05-16T16:16:40.459Z,82.69
2023-05-16T16:19:08.355Z,84.15
2023-05-16T16:21:35.181Z,84.07
2023-05-16T16:24:01.956Z,85.11
2023-05-16T16:26:28.703Z,86.80
2023-05-16T16:28:55.319Z,86.94
2023-05-16T16:31:22.018Z,85.27
2023-05-16T16:33:49.371Z,87.45
2023-05-16T16:36:17.203Z,85.89
2023-05-16T16:38:44.078Z,85.09
2023-05-16T16:41:10.739Z,85.87
2023-05-16T16:43:40.330Z,84.50
2023-05-16T16:46:08.332Z,84.74
2023-05-16T16:48:35.093Z,84.51
2023-05-16T16:51:02.438Z,84.34
2023-05-16T16:53:30.580Z,84.05
2023-05-16T16:55:57.249Z,83.57
2023-05-16T16:58:23.977Z,85.49
2023-05-16T17:00:50.649Z,86.66
2023-05-16T17:03:17.512Z,87.51
2023-05-16T17:05:45.264Z,85.96
2023-05-16T17:08:12.301Z,86.05
2023-05-16T17:10:39.474Z,87.00
2023-05-16T17:13:12.248Z,85.94
2023-05-16T17:15:39.419Z,85.47
2023-05-16T17:18:07.751Z,87.63
2023-05-16T17:20:35.642Z,86.65
2023-05-16T17:23:03.416Z,87.75
2023-05-16T17:25:30.356Z,86.63
2023-05-16T17:27:57.127Z,87.19
2023-05-16T17:30:24.078Z,86.32
2023-05-16T17:32:50.854Z,86.72
2023-05-16T17:35:18.305Z,86.32
2023-05-16T17:37:47.369Z,86.96
2023-05-16T17:40:17.028Z,85.17
2023-05-16T17:42:45.253Z,86.43
2023-05-16T17:45:16.407Z,86.58
2023-05-16T17:47:43.303Z,87.57
2023-05-16T17:50:10.903Z,86.80
2023-05-16T17:52:39.777Z,87.22
2023-05-16T17:55:10.388Z,87.18
2023-05-16T17:57:37.227Z,86.47
2023-05-16T18:00:05.720Z,87.93
2023-05-16T18:02:33.005Z,87.55
2023-05-16T18:05:01.831Z,86.01
2023-05-16T18:07:28.465Z,84.43
2023-05-16T18:09:55.288Z,83.67
2023-05-16T18:12:22.192Z,84.74
2023-05-16T18:14:48.844Z,86.47
2023-05-16T18:17:15.563Z,87.18
2023-05-16T18:19:42.347Z,85.96
2023-05-16T18:22:10.222Z,85.28
2023-05-16T18:24:37.577Z,85.50
2023-05-16T18:27:04.479Z,85.01
2023-05-16T18:29:31.234Z,85.80
2023-05-16T18:31:58.007Z,86.08
2023-05-16T18:34:24.742Z,86.27
2023-05-16T18:36:51.666Z,84.94
2023-05-16T18:39:19.163Z,85.63
2023-05-16T18:41:48.137Z,85.52
2023-05-16T18:44:17.250Z,85.61
2023-05-16T18:46:46.098Z,86.57
2023-05-16T18:49:14.319Z,86.99
2023-05-16T18:51:41.221Z,86.30
2023-05-16T18:54:07.987Z,85.89
2023-05-16T18:56:34.604Z,86.93
2023-05-16T18:59:01.264Z,87.01
2023-05-16T19:01:28.146Z,86.26
2023-05-16T19:03:54.994Z,86.23
2023-05-16T19:06:21.804Z,82.93
2023-05-16T19:08:48.626Z,82.61
2023-05-16T19:11:17.290Z,83.20
2023-05-16T19:13:47.225Z,82.31
2023-05-16T19:16:14.369Z,84.20
2023-05-16T19:18:41.105Z,83.48
2023-05-16T19:21:07.943Z,83.03
2023-05-16T19:23:34.786Z,82.92
2023-05-16T19:26:01.655Z,83.80
2023-05-16T19:28:28.921Z,82.04
2023-05-16T19:30:55.562Z,82.02
2023-05-16T19:33:22.307Z,81.12
2023-05-16T19:35:51.549Z,78.97
2023-05-16T19:38:19.857Z,75.53
2023-05-16T19:40:46.947Z,76.14
2023-05-16T19:43:13.665Z,77.87
2023-05-16T19:45:40.340Z,73.90
2023-05-16T19:48:07.666Z,72.58
2023-05-16T19:50:34.660Z,74.74
2023-05-16T19:53:01.605Z,76.31
2023-05-16T19:55:29.275Z,73.21
2023-05-16T19:57:56.981Z,72.39
2023-05-16T20:00:24.163Z,74.01
2023-05-16T20:02:51.049Z,74.13
2023-05-16T20:05:21.798Z,71.31
2023-05-16T20:07:53.311Z,71.79
2023-05-16T20:10:21.937Z,72.30
2023-05-16T20:12:48.940Z,71.94
2023-05-16T20:15:16.305Z,73.20
2023-05-16T20:17:43.234Z,74.00
2023-05-16T20:20:10.358Z,76.33
2023-05-16T20:22:41.612Z,77.21
2023-05-16T20:25:09.728Z,77.32
2023-05-16T20:27:36.737Z,79.58
2023-05-16T20:30:04.260Z,77.98
2023-05-16T20:32:31.066Z,77.50
2023-05-16T20:34:57.930Z,78.28
2023-05-16T20:37:26.865Z,78.84
2023-05-16T20:39:54.588Z,77.31
2023-05-16T20:42:23.268Z,78.71
2023-05-16T20:44:50.056Z,79.42
2023-05-16T20:47:19.393Z,79.29
2023-05-16T20:49:46.086Z,83.42
2023-05-16T20:52:12.826Z,80.95
2023-05-16T20:54:40.069Z,82.37
2023-05-16T20:57:07.300Z,80.81
2023-05-16T20:59:34.685Z,80.53
2023-05-16T21:02:11.220Z,81.16
2023-05-16T21:04:38.751Z,81.05
2023-05-16T21:07:08.224Z,79.99
2023-05-16T21:09:36.897Z,78.97
2023-05-16T21:12:04.326Z,78.89
2023-05-16T21:14:30.962Z,78.37
2023-05-16T21:16:57.724Z,78.71
2023-05-16T21:19:24.575Z,78.88
2023-05-16T21:21:51.183Z,78.84
2023-05-16T21:24:17.765Z,78.92
2023-05-16T21:26:44.371Z,81.15
2023-05-16T21:29:10.948Z,80.98
2023-05-16T21:31:37.627Z,81.52
2023-05-16T21:34:04.319Z,81.40
2023-05-16T21:36:31.386Z,81.35
2023-05-16T21:38:58.086Z,81.35
2023-05-16T21:41:24.717Z,82.18
2023-05-16T21:43:51.280Z,82.49
2023-05-16T21:46:17.959Z,82.02
2023-05-16T21:48:44.682Z,80.96
2023-05-16T21:51:11.531Z,80.60
2023-05-16T21:53:38.491Z,81.42
2023-05-16T21:56:06.212Z,80.20
2023-05-16T21:58:32.875Z,78.23
2023-05-16T22:00:59.470Z,76.17
2023-05-16T22:03:26.126Z,77.64
2023-05-16T22:05:52.792Z,77.35
2023-05-16T22:08:19.440Z,79.22
2023-05-16T22:10:46.003Z,78.58
2023-05-16T22:13:12.636Z,78.19
2023-05-16T22:15:40.735Z,77.54
2023-05-16T22:18:07.621Z,75.97
2023-05-16T22:20:34.312Z,75.37
2023-05-16T22:23:01.127Z,76.29
2023-05-16T22:25:27.911Z,74.80
2023-05-16T22:27:54.947Z,76.26
2023-05-16T22:30:21.491Z,76.29
2023-05-16T22:32:48.412Z,76.24
2023-05-16T22:35:15.105Z,77.37
2023-05-16T22:37:41.849Z,77.97
2023-05-16T22:40:09.300Z,76.64
2023-05-16T22:42:36.043Z,76.30
2023-05-16T22:45:03.874Z,76.32
2023-05-16T22:47:30.845Z,77.11
2023-05-16T22:49:57.572Z,76.72
2023-05-16T22:52:24.213Z,77.28
2023-05-16T22:54:51.105Z,77.61
2023-05-16T22:57:17.837Z,78.22
2023-05-16T22:59:44.457Z,79.52
2023-05-16T23:02:11.033Z,80.96
2023-05-16T23:04:37.622Z,80.73
2023-05-16T23:07:04.448Z,80.13
2023-05-16T23:09:31.132Z,80.14
2023-05-16T23:11:57.884Z,80.26
2023-05-16T23:14:24.482Z,80.71
2023-05-16T23:16:51.046Z,80.40
2023-05-16T23:19:17.819Z,80.09
2023-05-16T23:21:44.809Z,80.25
2023-05-16T23:24:11.709Z,80.22
2023-05-16T23:26:38.342Z,79.41
2023-05-16T23:29:05.131Z,78.76
2023-05-16T23:31:31.894Z,79.00
2023-05-16T23:33:58.517Z,79.48
2023-05-16T23:36:25.063Z,78.84
2023-05-16T23:38:51.615Z,78.94
2023-05-16T23:41:18.457Z,81.33
2023-05-16T23:43:44.982Z,81.08
2023-05-16T23:46:11.762Z,81.09
2023-05-16T23:48:39.930Z,82.17
2023-05-16T23:51:07.640Z,82.61
2023-05-16T23:53:35.267Z,82.77
2023-05-16T23:56:02.068Z,81.28
2023-05-16T23:58:28.652Z,81.66
